sensor_id;sensor_type;location;lat;lon;timestamp;temperature;humidity
44037;DHT22;62488;-37.670;-63.532;2023-01-08T00:00:20;31.10;55.10
44037;DHT22;62488;-37.670;-63.532;2023-01-08T00:02:47;31.00;55.40
44037;DHT22;62488;-37.670;-63.532;2023-01-08T00:05:15;30.80;55.70
44037;DHT22;62488;-37.670;-63.532;2023-01-08T00:07:42;30.80;56.00
44037;DHT22;62488;-37.670;-63.532;2023-01-08T00:10:08;30.60;56.40
44037;DHT22;62488;-37.670;-63.532;2023-01-08T00:12:35;30.50;56.60
44037;DHT22;62488;-37.670;-63.532;2023-01-08T00:15:02;30.40;56.70
44037;DHT22;62488;-37.670;-63.532;2023-01-08T00:17:29;30.40;56.70
44037;DHT22;62488;-37.670;-63.532;2023-01-08T00:19:56;30.30;56.80
44037;DHT22;62488;-37.670;-63.532;2023-01-08T00:22:23;30.30;56.90
44037;DHT22;62488;-37.670;-63.532;2023-01-08T00:24:50;30.30;56.80
44037;DHT22;62488;-37.670;-63.532;2023-01-08T00:27:17;30.20;57.00
44037;DHT22;62488;-37.670;-63.532;2023-01-08T00:29:44;30.20;56.90
44037;DHT22;62488;-37.670;-63.532;2023-01-08T00:32:11;30.20;57.10
44037;DHT22;62488;-37.670;-63.532;2023-01-08T00:34:38;30.00;57.60
44037;DHT22;62488;-37.670;-63.532;2023-01-08T00:37:05;29.90;58.20
44037;DHT22;62488;-37.670;-63.532;2023-01-08T00:39:31;29.80;58.90
44037;DHT22;62488;-37.670;-63.532;2023-01-08T00:41:58;29.70;59.40
44037;DHT22;62488;-37.670;-63.532;2023-01-08T00:44:25;29.70;60.00
44037;DHT22;62488;-37.670;-63.532;2023-01-08T00:46:52;29.70;60.20
44037;DHT22;62488;-37.670;-63.532;2023-01-08T00:49:19;29.70;60.50
44037;DHT22;62488;-37.670;-63.532;2023-01-08T00:51:46;29.60;60.80
44037;DHT22;62488;-37.670;-63.532;2023-01-08T00:54:13;29.60;61.30
44037;DHT22;62488;-37.670;-63.532;2023-01-08T00:56:40;29.50;61.70
44037;DHT22;62488;-37.670;-63.532;2023-01-08T00:59:07;29.40;61.90
44037;DHT22;62488;-37.670;-63.532;2023-01-08T01:01:34;29.40;62.20
44037;DHT22;62488;-37.670;-63.532;2023-01-08T01:04:01;29.40;62.50
44037;DHT22;62488;-37.670;-63.532;2023-01-08T01:06:28;29.30;62.70
44037;DHT22;62488;-37.670;-63.532;2023-01-08T01:08:55;29.30;63.80
44037;DHT22;62488;-37.670;-63.532;2023-01-08T01:11:25;29.20;63.70
44037;DHT22;62488;-37.670;-63.532;2023-01-08T01:13:54;29.10;63.90
44037;DHT22;62488;-37.670;-63.532;2023-01-08T01:16:21;29.10;63.80
44037;DHT22;62488;-37.670;-63.532;2023-01-08T01:18:49;29.10;64.10
44037;DHT22;62488;-37.670;-63.532;2023-01-08T01:21:26;29.10;64.20
44037;DHT22;62488;-37.670;-63.532;2023-01-08T01:24:00;29.00;64.60
44037;DHT22;62488;-37.670;-63.532;2023-01-08T01:26:28;29.00;64.70
44037;DHT22;62488;-37.670;-63.532;2023-01-08T01:28:56;29.00;65.00
44037;DHT22;62488;-37.670;-63.532;2023-01-08T01:31:25;28.90;64.60
44037;DHT22;62488;-37.670;-63.532;2023-01-08T01:33:54;28.90;64.70
44037;DHT22;62488;-37.670;-63.532;2023-01-08T01:36:22;28.90;64.90
44037;DHT22;62488;-37.670;-63.532;2023-01-08T01:38:51;28.80;65.00
44037;DHT22;62488;-37.670;-63.532;2023-01-08T01:41:26;28.90;64.90
44037;DHT22;62488;-37.670;-63.532;2023-01-08T01:43:58;28.90;65.10
44037;DHT22;62488;-37.670;-63.532;2023-01-08T01:46:34;28.80;65.40
44037;DHT22;62488;-37.670;-63.532;2023-01-08T01:49:07;28.80;65.70
44037;DHT22;62488;-37.670;-63.532;2023-01-08T01:51:36;28.70;65.80
44037;DHT22;62488;-37.670;-63.532;2023-01-08T01:54:08;28.70;66.30
44037;DHT22;62488;-37.670;-63.532;2023-01-08T01:56:36;28.70;66.40
44037;DHT22;62488;-37.670;-63.532;2023-01-08T01:59:04;28.70;66.30
44037;DHT22;62488;-37.670;-63.532;2023-01-08T02:01:31;28.70;66.50
44037;DHT22;62488;-37.670;-63.532;2023-01-08T02:03:59;28.70;66.60
44037;DHT22;62488;-37.670;-63.532;2023-01-08T02:15:21;28.50;67.00
44037;DHT22;62488;-37.670;-63.532;2023-01-08T02:23:07;28.50;67.20
44037;DHT22;62488;-37.670;-63.532;2023-01-08T02:28:45;28.40;67.80
44037;DHT22;62488;-37.670;-63.532;2023-01-08T02:31:15;28.40;68.10
44037;DHT22;62488;-37.670;-63.532;2023-01-08T02:33:42;28.30;68.40
44037;DHT22;62488;-37.670;-63.532;2023-01-08T02:47:12;28.10;69.30
44037;DHT22;62488;-37.670;-63.532;2023-01-08T02:49:45;28.00;69.40
44037;DHT22;62488;-37.670;-63.532;2023-01-08T02:52:14;28.00;69.50
44037;DHT22;62488;-37.670;-63.532;2023-01-08T02:54:42;28.10;69.10
44037;DHT22;62488;-37.670;-63.532;2023-01-08T02:57:14;28.00;69.30
44037;DHT22;62488;-37.670;-63.532;2023-01-08T02:59:44;28.00;69.30
44037;DHT22;62488;-37.670;-63.532;2023-01-08T03:02:13;27.90;69.40
44037;DHT22;62488;-37.670;-63.532;2023-01-08T03:04:48;27.90;69.50
44037;DHT22;62488;-37.670;-63.532;2023-01-08T03:07:17;27.80;69.70
44037;DHT22;62488;-37.670;-63.532;2023-01-08T03:09:44;27.80;69.90
44037;DHT22;62488;-37.670;-63.532;2023-01-08T03:14:54;27.70;70.30
44037;DHT22;62488;-37.670;-63.532;2023-01-08T03:17:31;27.70;70.40
44037;DHT22;62488;-37.670;-63.532;2023-01-08T03:20:13;27.60;70.80
44037;DHT22;62488;-37.670;-63.532;2023-01-08T03:22:43;27.50;71.10
44037;DHT22;62488;-37.670;-63.532;2023-01-08T03:25:13;27.40;71.20
44037;DHT22;62488;-37.670;-63.532;2023-01-08T03:27:44;27.40;71.40
44037;DHT22;62488;-37.670;-63.532;2023-01-08T03:30:13;27.40;71.60
44037;DHT22;62488;-37.670;-63.532;2023-01-08T03:32:43;27.30;71.90
44037;DHT22;62488;-37.670;-63.532;2023-01-08T03:35:12;27.30;72.10
44037;DHT22;62488;-37.670;-63.532;2023-01-08T03:37:44;27.30;72.40
44037;DHT22;62488;-37.670;-63.532;2023-01-08T03:40:24;27.20;72.70
44037;DHT22;62488;-37.670;-63.532;2023-01-08T03:42:51;27.10;72.90
44037;DHT22;62488;-37.670;-63.532;2023-01-08T03:45:20;27.10;73.20
44037;DHT22;62488;-37.670;-63.532;2023-01-08T03:47:48;27.00;73.20
44037;DHT22;62488;-37.670;-63.532;2023-01-08T03:50:20;27.10;73.30
44037;DHT22;62488;-37.670;-63.532;2023-01-08T03:52:48;27.00;73.50
44037;DHT22;62488;-37.670;-63.532;2023-01-08T03:55:15;27.00;73.50
44037;DHT22;62488;-37.670;-63.532;2023-01-08T03:57:42;26.90;73.60
44037;DHT22;62488;-37.670;-63.532;2023-01-08T04:00:10;26.90;73.90
44037;DHT22;62488;-37.670;-63.532;2023-01-08T04:02:37;26.80;74.10
44037;DHT22;62488;-37.670;-63.532;2023-01-08T04:05:04;26.70;74.50
44037;DHT22;62488;-37.670;-63.532;2023-01-08T04:07:31;26.60;74.70
44037;DHT22;62488;-37.670;-63.532;2023-01-08T04:09:58;26.60;74.70
44037;DHT22;62488;-37.670;-63.532;2023-01-08T04:12:25;26.60;75.10
44037;DHT22;62488;-37.670;-63.532;2023-01-08T04:14:52;26.50;75.00
44037;DHT22;62488;-37.670;-63.532;2023-01-08T04:17:19;26.50;75.20
44037;DHT22;62488;-37.670;-63.532;2023-01-08T04:19:46;26.60;75.00
44037;DHT22;62488;-37.670;-63.532;2023-01-08T04:22:13;26.50;75.20
44037;DHT22;62488;-37.670;-63.532;2023-01-08T04:24:40;26.50;75.60
44037;DHT22;62488;-37.670;-63.532;2023-01-08T04:27:06;26.40;75.80
44037;DHT22;62488;-37.670;-63.532;2023-01-08T04:29:33;26.40;76.10
44037;DHT22;62488;-37.670;-63.532;2023-01-08T04:32:01;26.40;76.30
44037;DHT22;62488;-37.670;-63.532;2023-01-08T04:34:28;26.40;76.50
44037;DHT22;62488;-37.670;-63.532;2023-01-08T04:36:55;26.40;76.60
44037;DHT22;62488;-37.670;-63.532;2023-01-08T04:39:22;26.30;76.80
44037;DHT22;62488;-37.670;-63.532;2023-01-08T04:41:49;26.30;76.60
44037;DHT22;62488;-37.670;-63.532;2023-01-08T04:44:16;26.30;76.80
44037;DHT22;62488;-37.670;-63.532;2023-01-08T04:46:43;26.20;76.70
44037;DHT22;62488;-37.670;-63.532;2023-01-08T04:49:10;26.20;76.80
44037;DHT22;62488;-37.670;-63.532;2023-01-08T04:51:38;26.20;76.90
44037;DHT22;62488;-37.670;-63.532;2023-01-08T04:54:05;26.20;76.80
44037;DHT22;62488;-37.670;-63.532;2023-01-08T04:56:32;26.10;76.80
44037;DHT22;62488;-37.670;-63.532;2023-01-08T04:58:59;26.10;76.80
44037;DHT22;62488;-37.670;-63.532;2023-01-08T05:01:27;26.10;76.40
44037;DHT22;62488;-37.670;-63.532;2023-01-08T05:03:56;26.10;75.80
44037;DHT22;62488;-37.670;-63.532;2023-01-08T05:06:24;26.10;75.80
44037;DHT22;62488;-37.670;-63.532;2023-01-08T05:08:51;26.00;75.60
44037;DHT22;62488;-37.670;-63.532;2023-01-08T05:11:18;26.00;75.70
44037;DHT22;62488;-37.670;-63.532;2023-01-08T05:13:49;25.90;75.50
44037;DHT22;62488;-37.670;-63.532;2023-01-08T05:16:16;25.90;75.30
44037;DHT22;62488;-37.670;-63.532;2023-01-08T05:18:44;25.90;75.20
44037;DHT22;62488;-37.670;-63.532;2023-01-08T05:21:11;25.90;75.00
44037;DHT22;62488;-37.670;-63.532;2023-01-08T05:23:39;25.90;74.70
44037;DHT22;62488;-37.670;-63.532;2023-01-08T05:26:06;25.80;75.00
44037;DHT22;62488;-37.670;-63.532;2023-01-08T05:28:34;25.70;74.90
44037;DHT22;62488;-37.670;-63.532;2023-01-08T05:31:01;25.70;75.10
44037;DHT22;62488;-37.670;-63.532;2023-01-08T05:33:27;25.60;75.40
44037;DHT22;62488;-37.670;-63.532;2023-01-08T05:35:54;25.60;74.90
44037;DHT22;62488;-37.670;-63.532;2023-01-08T05:38:22;25.60;74.80
44037;DHT22;62488;-37.670;-63.532;2023-01-08T05:40:51;25.50;74.70
44037;DHT22;62488;-37.670;-63.532;2023-01-08T05:43:18;25.50;74.40
44037;DHT22;62488;-37.670;-63.532;2023-01-08T05:45:45;25.50;74.50
44037;DHT22;62488;-37.670;-63.532;2023-01-08T05:48:12;25.40;74.40
44037;DHT22;62488;-37.670;-63.532;2023-01-08T05:50:39;25.40;74.60
44037;DHT22;62488;-37.670;-63.532;2023-01-08T05:53:07;25.40;74.30
44037;DHT22;62488;-37.670;-63.532;2023-01-08T05:55:34;25.30;74.30
44037;DHT22;62488;-37.670;-63.532;2023-01-08T05:58:05;25.20;74.60
44037;DHT22;62488;-37.670;-63.532;2023-01-08T06:00:34;25.10;74.90
44037;DHT22;62488;-37.670;-63.532;2023-01-08T06:03:01;25.00;75.30
44037;DHT22;62488;-37.670;-63.532;2023-01-08T06:05:30;24.90;75.80
44037;DHT22;62488;-37.670;-63.532;2023-01-08T06:07:58;24.90;76.30
44037;DHT22;62488;-37.670;-63.532;2023-01-08T06:10:25;24.80;76.40
44037;DHT22;62488;-37.670;-63.532;2023-01-08T06:12:53;24.80;76.30
44037;DHT22;62488;-37.670;-63.532;2023-01-08T06:15:20;24.70;76.50
44037;DHT22;62488;-37.670;-63.532;2023-01-08T06:17:47;24.70;76.50
44037;DHT22;62488;-37.670;-63.532;2023-01-08T06:20:14;24.60;76.60
44037;DHT22;62488;-37.670;-63.532;2023-01-08T06:22:41;24.60;76.90
44037;DHT22;62488;-37.670;-63.532;2023-01-08T06:25:08;24.50;77.10
44037;DHT22;62488;-37.670;-63.532;2023-01-08T06:27:34;24.40;77.20
44037;DHT22;62488;-37.670;-63.532;2023-01-08T06:30:02;24.40;77.30
44037;DHT22;62488;-37.670;-63.532;2023-01-08T06:32:28;24.40;77.50
44037;DHT22;62488;-37.670;-63.532;2023-01-08T06:34:55;24.30;77.70
44037;DHT22;62488;-37.670;-63.532;2023-01-08T06:37:22;24.30;77.90
44037;DHT22;62488;-37.670;-63.532;2023-01-08T06:39:49;24.20;77.70
44037;DHT22;62488;-37.670;-63.532;2023-01-08T06:42:16;24.20;77.90
44037;DHT22;62488;-37.670;-63.532;2023-01-08T06:44:43;24.10;77.80
44037;DHT22;62488;-37.670;-63.532;2023-01-08T06:47:10;24.10;77.80
44037;DHT22;62488;-37.670;-63.532;2023-01-08T06:49:37;24.10;77.10
44037;DHT22;62488;-37.670;-63.532;2023-01-08T06:52:04;24.10;76.80
44037;DHT22;62488;-37.670;-63.532;2023-01-08T06:54:31;24.00;76.80
44037;DHT22;62488;-37.670;-63.532;2023-01-08T06:56:57;24.00;76.60
44037;DHT22;62488;-37.670;-63.532;2023-01-08T06:59:24;24.00;76.20
44037;DHT22;62488;-37.670;-63.532;2023-01-08T07:01:51;23.90;76.00
44037;DHT22;62488;-37.670;-63.532;2023-01-08T07:04:18;23.90;76.10
44037;DHT22;62488;-37.670;-63.532;2023-01-08T07:06:46;23.90;76.00
44037;DHT22;62488;-37.670;-63.532;2023-01-08T07:09:14;23.90;75.70
44037;DHT22;62488;-37.670;-63.532;2023-01-08T07:11:41;23.80;75.80
44037;DHT22;62488;-37.670;-63.532;2023-01-08T07:14:09;23.70;75.80
44037;DHT22;62488;-37.670;-63.532;2023-01-08T07:16:36;23.70;75.70
44037;DHT22;62488;-37.670;-63.532;2023-01-08T07:19:03;23.70;75.80
44037;DHT22;62488;-37.670;-63.532;2023-01-08T07:21:29;23.70;76.00
44037;DHT22;62488;-37.670;-63.532;2023-01-08T07:23:56;23.60;75.90
44037;DHT22;62488;-37.670;-63.532;2023-01-08T07:26:24;23.60;76.00
44037;DHT22;62488;-37.670;-63.532;2023-01-08T07:28:51;23.50;75.60
44037;DHT22;62488;-37.670;-63.532;2023-01-08T07:31:18;23.50;75.60
44037;DHT22;62488;-37.670;-63.532;2023-01-08T07:33:45;23.50;76.10
44037;DHT22;62488;-37.670;-63.532;2023-01-08T07:36:12;23.40;76.60
44037;DHT22;62488;-37.670;-63.532;2023-01-08T07:38:41;23.30;77.00
44037;DHT22;62488;-37.670;-63.532;2023-01-08T07:41:08;23.30;77.70
44037;DHT22;62488;-37.670;-63.532;2023-01-08T07:43:35;23.20;77.80
44037;DHT22;62488;-37.670;-63.532;2023-01-08T07:46:03;23.10;78.10
44037;DHT22;62488;-37.670;-63.532;2023-01-08T07:48:30;23.00;78.30
44037;DHT22;62488;-37.670;-63.532;2023-01-08T07:51:02;23.00;78.40
44037;DHT22;62488;-37.670;-63.532;2023-01-08T07:53:29;22.90;78.50
44037;DHT22;62488;-37.670;-63.532;2023-01-08T07:56:01;22.80;78.70
44037;DHT22;62488;-37.670;-63.532;2023-01-08T07:58:28;22.80;79.20
44037;DHT22;62488;-37.670;-63.532;2023-01-08T08:00:56;22.70;79.30
44037;DHT22;62488;-37.670;-63.532;2023-01-08T08:03:23;22.70;79.50
44037;DHT22;62488;-37.670;-63.532;2023-01-08T08:05:50;22.60;79.80
44037;DHT22;62488;-37.670;-63.532;2023-01-08T08:08:17;22.50;80.80
44037;DHT22;62488;-37.670;-63.532;2023-01-08T08:10:45;22.50;80.70
44037;DHT22;62488;-37.670;-63.532;2023-01-08T08:13:12;22.50;81.00
44037;DHT22;62488;-37.670;-63.532;2023-01-08T08:15:39;22.40;81.30
44037;DHT22;62488;-37.670;-63.532;2023-01-08T08:18:07;22.40;81.50
44037;DHT22;62488;-37.670;-63.532;2023-01-08T08:20:35;22.40;82.00
44037;DHT22;62488;-37.670;-63.532;2023-01-08T08:23:06;22.30;82.60
44037;DHT22;62488;-37.670;-63.532;2023-01-08T08:25:33;22.20;83.10
44037;DHT22;62488;-37.670;-63.532;2023-01-08T08:28:01;22.10;83.70
44037;DHT22;62488;-37.670;-63.532;2023-01-08T08:30:31;22.10;84.40
44037;DHT22;62488;-37.670;-63.532;2023-01-08T08:32:58;22.00;84.90
44037;DHT22;62488;-37.670;-63.532;2023-01-08T08:35:29;22.00;85.60
44037;DHT22;62488;-37.670;-63.532;2023-01-08T08:37:57;21.90;86.40
44037;DHT22;62488;-37.670;-63.532;2023-01-08T08:40:25;22.00;87.00
44037;DHT22;62488;-37.670;-63.532;2023-01-08T08:43:02;22.00;87.20
44037;DHT22;62488;-37.670;-63.532;2023-01-08T08:45:30;22.00;87.30
44037;DHT22;62488;-37.670;-63.532;2023-01-08T08:47:57;21.90;87.80
44037;DHT22;62488;-37.670;-63.532;2023-01-08T08:50:24;21.90;88.30
44037;DHT22;62488;-37.670;-63.532;2023-01-08T08:52:51;21.90;88.70
44037;DHT22;62488;-37.670;-63.532;2023-01-08T08:55:18;21.90;89.20
44037;DHT22;62488;-37.670;-63.532;2023-01-08T08:57:46;21.90;89.80
44037;DHT22;62488;-37.670;-63.532;2023-01-08T09:00:14;21.80;90.10
44037;DHT22;62488;-37.670;-63.532;2023-01-08T09:02:41;21.80;90.30
44037;DHT22;62488;-37.670;-63.532;2023-01-08T09:05:08;21.80;90.50
44037;DHT22;62488;-37.670;-63.532;2023-01-08T09:07:35;21.80;90.70
44037;DHT22;62488;-37.670;-63.532;2023-01-08T09:10:03;21.70;90.90
44037;DHT22;62488;-37.670;-63.532;2023-01-08T09:12:30;21.70;91.10
44037;DHT22;62488;-37.670;-63.532;2023-01-08T09:14:57;21.70;91.30
44037;DHT22;62488;-37.670;-63.532;2023-01-08T09:17:24;21.70;91.60
44037;DHT22;62488;-37.670;-63.532;2023-01-08T09:19:51;21.70;91.60
44037;DHT22;62488;-37.670;-63.532;2023-01-08T09:22:18;21.70;91.80
44037;DHT22;62488;-37.670;-63.532;2023-01-08T09:24:45;21.70;92.00
44037;DHT22;62488;-37.670;-63.532;2023-01-08T09:27:13;21.60;92.30
44037;DHT22;62488;-37.670;-63.532;2023-01-08T09:29:40;21.60;92.40
44037;DHT22;62488;-37.670;-63.532;2023-01-08T09:32:07;21.70;92.60
44037;DHT22;62488;-37.670;-63.532;2023-01-08T09:34:35;21.70;92.90
44037;DHT22;62488;-37.670;-63.532;2023-01-08T09:37:02;21.70;93.00
44037;DHT22;62488;-37.670;-63.532;2023-01-08T09:39:30;21.60;93.20
44037;DHT22;62488;-37.670;-63.532;2023-01-08T09:42:02;21.70;93.50
44037;DHT22;62488;-37.670;-63.532;2023-01-08T09:44:34;21.60;93.60
44037;DHT22;62488;-37.670;-63.532;2023-01-08T09:47:03;21.70;93.90
44037;DHT22;62488;-37.670;-63.532;2023-01-08T09:49:41;21.70;94.10
44037;DHT22;62488;-37.670;-63.532;2023-01-08T09:52:11;21.80;94.30
44037;DHT22;62488;-37.670;-63.532;2023-01-08T09:54:39;21.80;94.40
44037;DHT22;62488;-37.670;-63.532;2023-01-08T09:57:18;21.80;94.50
44037;DHT22;62488;-37.670;-63.532;2023-01-08T09:59:46;21.80;94.70
44037;DHT22;62488;-37.670;-63.532;2023-01-08T10:02:21;21.90;94.80
44037;DHT22;62488;-37.670;-63.532;2023-01-08T10:04:56;21.90;94.90
44037;DHT22;62488;-37.670;-63.532;2023-01-08T10:07:25;22.00;94.90
44037;DHT22;62488;-37.670;-63.532;2023-01-08T10:09:54;22.00;95.00
44037;DHT22;62488;-37.670;-63.532;2023-01-08T10:12:27;22.10;95.00
44037;DHT22;62488;-37.670;-63.532;2023-01-08T10:15:03;22.20;95.00
44037;DHT22;62488;-37.670;-63.532;2023-01-08T10:17:39;22.20;94.90
44037;DHT22;62488;-37.670;-63.532;2023-01-08T10:20:25;22.30;95.00
44037;DHT22;62488;-37.670;-63.532;2023-01-08T10:22:53;22.40;94.70
44037;DHT22;62488;-37.670;-63.532;2023-01-08T10:25:23;22.50;94.90
44037;DHT22;62488;-37.670;-63.532;2023-01-08T10:27:59;22.60;94.40
44037;DHT22;62488;-37.670;-63.532;2023-01-08T10:30:34;22.70;94.60
44037;DHT22;62488;-37.670;-63.532;2023-01-08T10:33:10;22.70;94.50
44037;DHT22;62488;-37.670;-63.532;2023-01-08T10:35:40;22.80;94.40
44037;DHT22;62488;-37.670;-63.532;2023-01-08T10:38:25;23.00;94.00
44037;DHT22;62488;-37.670;-63.532;2023-01-08T10:40:52;23.10;93.60
44037;DHT22;62488;-37.670;-63.532;2023-01-08T10:43:23;23.20;93.50
44037;DHT22;62488;-37.670;-63.532;2023-01-08T10:46:01;23.20;93.50
44037;DHT22;62488;-37.670;-63.532;2023-01-08T10:48:50;23.30;93.10
44037;DHT22;62488;-37.670;-63.532;2023-01-08T10:51:23;23.40;92.80
44037;DHT22;62488;-37.670;-63.532;2023-01-08T10:53:51;23.50;92.90
44037;DHT22;62488;-37.670;-63.532;2023-01-08T10:56:27;23.60;92.60
44037;DHT22;62488;-37.670;-63.532;2023-01-08T10:58:54;23.70;92.40
44037;DHT22;62488;-37.670;-63.532;2023-01-08T11:01:26;23.80;92.10
44037;DHT22;62488;-37.670;-63.532;2023-01-08T11:03:58;23.90;92.10
44037;DHT22;62488;-37.670;-63.532;2023-01-08T11:06:28;23.90;91.90
44037;DHT22;62488;-37.670;-63.532;2023-01-08T11:08:59;23.90;91.90
44037;DHT22;62488;-37.670;-63.532;2023-01-08T11:11:35;24.10;92.00
44037;DHT22;62488;-37.670;-63.532;2023-01-08T11:14:19;24.20;91.40
44037;DHT22;62488;-37.670;-63.532;2023-01-08T11:16:48;24.20;91.30
44037;DHT22;62488;-37.670;-63.532;2023-01-08T11:19:25;24.30;91.10
44037;DHT22;62488;-37.670;-63.532;2023-01-08T11:22:04;24.40;90.60
44037;DHT22;62488;-37.670;-63.532;2023-01-08T11:24:37;24.50;90.70
44037;DHT22;62488;-37.670;-63.532;2023-01-08T11:27:35;24.40;90.20
44037;DHT22;62488;-37.670;-63.532;2023-01-08T11:32:44;24.70;90.20
44037;DHT22;62488;-37.670;-63.532;2023-01-08T11:35:25;24.90;89.80
44037;DHT22;62488;-37.670;-63.532;2023-01-08T11:37:58;25.00;88.40
44037;DHT22;62488;-37.670;-63.532;2023-01-08T11:43:20;24.90;88.30
44037;DHT22;62488;-37.670;-63.532;2023-01-08T11:46:32;24.90;88.10
44037;DHT22;62488;-37.670;-63.532;2023-01-08T11:52:08;25.40;87.10
44037;DHT22;62488;-37.670;-63.532;2023-01-08T12:10:23;26.10;84.00
44037;DHT22;62488;-37.670;-63.532;2023-01-08T12:15:50;26.60;83.70
44037;DHT22;62488;-37.670;-63.532;2023-01-08T12:21:27;26.80;81.70
44037;DHT22;62488;-37.670;-63.532;2023-01-08T12:26:36;26.30;82.80
44037;DHT22;62488;-37.670;-63.532;2023-01-08T12:34:55;26.30;82.50
44037;DHT22;62488;-37.670;-63.532;2023-01-08T12:37:43;26.50;82.50
44037;DHT22;62488;-37.670;-63.532;2023-01-08T12:42:51;27.10;81.50
44037;DHT22;62488;-37.670;-63.532;2023-01-08T12:47:57;27.10;80.70
44037;DHT22;62488;-37.670;-63.532;2023-01-08T12:56:04;27.80;79.80
44037;DHT22;62488;-37.670;-63.532;2023-01-08T13:01:40;27.50;78.70
44037;DHT22;62488;-37.670;-63.532;2023-01-08T13:04:09;27.90;78.70
44037;DHT22;62488;-37.670;-63.532;2023-01-08T13:06:37;28.10;77.50
44037;DHT22;62488;-37.670;-63.532;2023-01-08T13:09:04;28.20;76.10
44037;DHT22;62488;-37.670;-63.532;2023-01-08T13:11:35;28.50;76.10
44037;DHT22;62488;-37.670;-63.532;2023-01-08T13:14:12;28.70;76.30
44037;DHT22;62488;-37.670;-63.532;2023-01-08T13:16:40;28.90;74.90
44037;DHT22;62488;-37.670;-63.532;2023-01-08T13:19:26;29.00;75.80
44037;DHT22;62488;-37.670;-63.532;2023-01-08T13:21:56;29.00;75.50
44037;DHT22;62488;-37.670;-63.532;2023-01-08T13:24:30;29.20;74.10
44037;DHT22;62488;-37.670;-63.532;2023-01-08T13:29:46;29.30;73.60
44037;DHT22;62488;-37.670;-63.532;2023-01-08T13:32:42;29.50;74.40
44037;DHT22;62488;-37.670;-63.532;2023-01-08T13:37:45;30.10;71.60
44037;DHT22;62488;-37.670;-63.532;2023-01-08T13:43:20;30.00;72.40
44037;DHT22;62488;-37.670;-63.532;2023-01-08T13:48:37;30.20;71.30
44037;DHT22;62488;-37.670;-63.532;2023-01-08T13:51:05;30.40;70.00
44037;DHT22;62488;-37.670;-63.532;2023-01-08T13:53:50;30.30;71.00
44037;DHT22;62488;-37.670;-63.532;2023-01-08T13:56:17;30.60;69.30
44037;DHT22;62488;-37.670;-63.532;2023-01-08T13:58:52;30.70;67.70
44037;DHT22;62488;-37.670;-63.532;2023-01-08T14:01:21;30.70;69.10
44037;DHT22;62488;-37.670;-63.532;2023-01-08T14:03:48;31.20;67.60
44037;DHT22;62488;-37.670;-63.532;2023-01-08T14:06:27;31.10;68.00
44037;DHT22;62488;-37.670;-63.532;2023-01-08T14:08:58;31.30;67.70
44037;DHT22;62488;-37.670;-63.532;2023-01-08T14:14:01;31.20;65.00
44037;DHT22;62488;-37.670;-63.532;2023-01-08T14:16:28;31.60;66.00
44037;DHT22;62488;-37.670;-63.532;2023-01-08T14:18:59;31.90;64.50
44037;DHT22;62488;-37.670;-63.532;2023-01-08T14:21:27;31.60;65.00
44037;DHT22;62488;-37.670;-63.532;2023-01-08T14:23:54;31.90;64.60
44037;DHT22;62488;-37.670;-63.532;2023-01-08T14:26:31;32.00;64.30
44037;DHT22;62488;-37.670;-63.532;2023-01-08T14:29:11;31.80;63.50
44037;DHT22;62488;-37.670;-63.532;2023-01-08T14:31:46;31.50;62.30
44037;DHT22;62488;-37.670;-63.532;2023-01-08T14:34:14;31.70;61.80
44037;DHT22;62488;-37.670;-63.532;2023-01-08T14:36:42;32.50;63.40
44037;DHT22;62488;-37.670;-63.532;2023-01-08T14:39:31;32.80;61.20
44037;DHT22;62488;-37.670;-63.532;2023-01-08T14:42:26;33.20;60.80
44037;DHT22;62488;-37.670;-63.532;2023-01-08T14:45:22;33.10;60.90
44037;DHT22;62488;-37.670;-63.532;2023-01-08T14:48:38;33.10;59.60
44037;DHT22;62488;-37.670;-63.532;2023-01-08T14:50:41;32.80;60.50
44037;DHT22;62488;-37.670;-63.532;2023-01-08T14:53:22;33.10;60.10
44037;DHT22;62488;-37.670;-63.532;2023-01-08T14:55:53;33.20;58.70
44037;DHT22;62488;-37.670;-63.532;2023-01-08T14:58:27;33.40;59.70
44037;DHT22;62488;-37.670;-63.532;2023-01-08T15:01:13;33.40;58.60
44037;DHT22;62488;-37.670;-63.532;2023-01-08T15:03:42;33.60;58.60
44037;DHT22;62488;-37.670;-63.532;2023-01-08T15:06:10;33.60;57.50
44037;DHT22;62488;-37.670;-63.532;2023-01-08T15:08:42;33.70;58.10
44037;DHT22;62488;-37.670;-63.532;2023-01-08T15:13:47;33.90;57.70
44037;DHT22;62488;-37.670;-63.532;2023-01-08T15:18:46;34.20;57.50
44037;DHT22;62488;-37.670;-63.532;2023-01-08T15:21:21;34.40;55.60
44037;DHT22;62488;-37.670;-63.532;2023-01-08T15:23:51;34.30;56.30
44037;DHT22;62488;-37.670;-63.532;2023-01-08T15:26:20;34.20;56.20
44037;DHT22;62488;-37.670;-63.532;2023-01-08T15:28:56;34.40;57.10
44037;DHT22;62488;-37.670;-63.532;2023-01-08T15:31:45;34.50;55.90
44037;DHT22;62488;-37.670;-63.532;2023-01-08T15:34:12;34.00;56.20
44037;DHT22;62488;-37.670;-63.532;2023-01-08T15:36:39;34.30;56.90
44037;DHT22;62488;-37.670;-63.532;2023-01-08T15:39:06;35.00;56.20
44037;DHT22;62488;-37.670;-63.532;2023-01-08T15:41:35;35.00;55.00
44037;DHT22;62488;-37.670;-63.532;2023-01-08T15:44:21;34.40;55.80
44037;DHT22;62488;-37.670;-63.532;2023-01-08T15:46:47;34.40;56.70
44037;DHT22;62488;-37.670;-63.532;2023-01-08T15:49:14;35.10;55.40
44037;DHT22;62488;-37.670;-63.532;2023-01-08T15:51:47;35.10;54.40
44037;DHT22;62488;-37.670;-63.532;2023-01-08T15:54:15;35.30;54.30
44037;DHT22;62488;-37.670;-63.532;2023-01-08T15:56:42;35.20;53.40
44037;DHT22;62488;-37.670;-63.532;2023-01-08T15:59:09;35.70;53.10
44037;DHT22;62488;-37.670;-63.532;2023-01-08T16:01:37;35.70;52.00
44037;DHT22;62488;-37.670;-63.532;2023-01-08T16:04:04;35.60;52.60
44037;DHT22;62488;-37.670;-63.532;2023-01-08T16:06:31;35.80;52.80
44037;DHT22;62488;-37.670;-63.532;2023-01-08T16:08:59;35.90;52.50
44037;DHT22;62488;-37.670;-63.532;2023-01-08T16:11:26;35.80;52.00
44037;DHT22;62488;-37.670;-63.532;2023-01-08T16:13:53;35.60;52.30
44037;DHT22;62488;-37.670;-63.532;2023-01-08T16:16:21;35.90;51.90
44037;DHT22;62488;-37.670;-63.532;2023-01-08T16:18:48;36.00;51.90
44037;DHT22;62488;-37.670;-63.532;2023-01-08T16:21:14;35.80;51.40
44037;DHT22;62488;-37.670;-63.532;2023-01-08T16:23:41;35.90;51.60
44037;DHT22;62488;-37.670;-63.532;2023-01-08T16:26:11;35.90;51.40
44037;DHT22;62488;-37.670;-63.532;2023-01-08T16:28:39;36.10;51.60
44037;DHT22;62488;-37.670;-63.532;2023-01-08T16:31:06;36.20;51.40
44037;DHT22;62488;-37.670;-63.532;2023-01-08T16:33:33;36.50;50.50
44037;DHT22;62488;-37.670;-63.532;2023-01-08T16:36:03;36.50;50.90
44037;DHT22;62488;-37.670;-63.532;2023-01-08T16:38:30;36.40;50.10
44037;DHT22;62488;-37.670;-63.532;2023-01-08T16:40:58;36.10;50.00
44037;DHT22;62488;-37.670;-63.532;2023-01-08T16:43:26;36.60;50.50
44037;DHT22;62488;-37.670;-63.532;2023-01-08T16:45:53;36.50;50.50